Time;durP1;ratioP1;P1;durP2;ratioP2;P2;SDS_P1;SDS_P2;PMS_P1;PMS_P2;Temp;Humidity;BMP_temperature;BMP_pressure;BME280_temperature;BME280_humidity;BME280_pressure;Samples;Min_cycle;Max_cycle;Signal;HPM_P1;HPM_P2
2023/09/15 00:00:32;;;;;;;2.47;2.00;;;;;;;;;;4986604;28;20240;-33
2023/09/15 00:03:00;;;;;;;4.27;2.30;;;;;;;;;;4994920;28;20228;-36
2023/09/15 00:05:29;;;;;;;2.13;1.90;;;;;;;;;;4975147;28;20222;-32
2023/09/15 00:07:57;;;;;;;1.80;1.67;;;;;;;;;;4973013;28;20230;-33
2023/09/15 00:10:26;;;;;;;2.63;2.20;;;;;;;;;;4970240;28;20225;-34
2023/09/15 00:12:54;;;;;;;2.13;1.93;;;;;;;;;;4984030;28;20224;-34
2023/09/15 00:15:23;;;;;;;5.93;2.10;;;;;;;;;;4975809;28;20283;-32
2023/09/15 00:17:51;;;;;;;2.00;1.90;;;;;;;;;;4969508;28;20212;-34
2023/09/15 00:20:18;;;;;;;2.37;2.10;;;;;;;;;;4973077;28;20260;-34
2023/09/15 00:22:49;;;;;;;2.03;1.93;;;;;;;;;;4977501;28;20296;-31
2023/09/15 00:25:18;;;;;;;2.40;2.23;;;;;;;;;;4973925;28;20214;-34
2023/09/15 00:27:46;;;;;;;1.97;1.83;;;;;;;;;;4975008;28;20668;-35
2023/09/15 00:30:14;;;;;;;4.63;2.40;;;;;;;;;;4988930;28;20236;-37
2023/09/15 00:32:43;;;;;;;3.37;1.90;;;;;;;;;;4984227;28;20211;-31
2023/09/15 00:35:12;;;;;;;4.53;1.90;;;;;;;;;;4978599;28;20205;-34
2023/09/15 00:37:40;;;;;;;2.17;1.83;;;;;;;;;;4972630;28;20230;-34
2023/09/15 00:40:11;;;;;;;2.93;1.93;;;;;;;;;;4972521;28;20237;-35
2023/09/15 00:42:39;;;;;;;3.30;2.30;;;;;;;;;;4973560;28;20288;-31
2023/09/15 00:45:13;;;;;;;2.00;1.90;;;;;;;;;;4989785;28;20209;-33
2023/09/15 00:47:40;;;;;;;4.90;2.00;;;;;;;;;;4974934;28;20205;-34
2023/09/15 00:50:09;;;;;;;2.07;1.80;;;;;;;;;;4976033;28;20287;-33
2023/09/15 00:52:37;;;;;;;2.07;1.87;;;;;;;;;;4971084;28;20206;-36
2023/09/15 00:55:08;;;;;;;1.93;1.80;;;;;;;;;;4975286;28;20197;-35
2023/09/15 00:57:40;;;;;;;3.10;2.67;;;;;;;;;;4977838;28;20706;-32
2023/09/15 01:00:12;;;;;;;3.33;2.20;;;;;;;;;;4980353;28;20253;-37
2023/09/15 01:02:40;;;;;;;1.87;1.77;;;;;;;;;;4965416;28;20260;-34
2023/09/15 01:05:11;;;;;;;4.07;2.43;;;;;;;;;;4978923;28;20654;-35
2023/09/15 01:07:39;;;;;;;2.80;2.00;;;;;;;;;;4984810;28;20236;-32
2023/09/15 01:10:08;;;;;;;1.70;1.60;;;;;;;;;;4970633;28;20248;-35
2023/09/15 01:12:36;;;;;;;2.00;1.80;;;;;;;;;;4979006;28;20211;-36
2023/09/15 01:15:03;;;;;;;1.97;1.87;;;;;;;;;;4974721;28;20235;-32
2023/09/15 01:17:34;;;;;;;1.97;1.77;;;;;;;;;;4990137;28;20212;-36
2023/09/15 01:20:09;;;;;;;2.10;1.90;;;;;;;;;;4968617;28;20654;-35
2023/09/15 01:22:58;;;;;;;2.20;1.93;;;;;;;;;;4975899;28;20235;-34
2023/09/15 01:25:52;;;;;;;2.10;1.90;;;;;;;;;;4971706;28;20210;-35
2023/09/15 01:28:27;;;;;;;1.80;1.70;;;;;;;;;;4969308;28;20323;-34
2023/09/15 01:30:57;;;;;;;2.10;1.83;;;;;;;;;;4976918;28;20255;-35
2023/09/15 01:33:25;;;;;;;1.70;1.60;;;;;;;;;;4976229;28;20213;-35
2023/09/15 01:35:53;;;;;;;2.40;2.17;;;;;;;;;;4973891;28;20216;-33
2023/09/15 01:38:21;;;;;;;2.83;2.33;;;;;;;;;;4987966;28;20299;-37
2023/09/15 01:40:48;;;;;;;2.30;2.10;;;;;;;;;;4971730;28;20245;-37
2023/09/15 01:43:20;;;;;;;2.33;2.13;;;;;;;;;;4975893;28;20208;-36
2023/09/15 01:45:48;;;;;;;2.23;1.93;;;;;;;;;;5076918;23;20272;-33
2023/09/15 01:48:17;;;;;;;5.17;2.37;;;;;;;;;;4988528;28;20215;-31
2023/09/15 01:50:44;;;;;;;4.17;2.40;;;;;;;;;;4978314;28;20239;-37
2023/09/15 01:53:11;;;;;;;2.17;1.93;;;;;;;;;;4974146;28;20205;-36
2023/09/15 01:55:39;;;;;;;1.70;1.60;;;;;;;;;;4960906;28;20244;-38
2023/09/15 01:58:06;;;;;;;3.03;1.93;;;;;;;;;;4972924;28;20227;-34
2023/09/15 02:00:34;;;;;;;2.47;2.27;;;;;;;;;;4973825;28;20240;-36
2023/09/15 02:03:02;;;;;;;2.63;1.80;;;;;;;;;;4963807;28;20206;-33
2023/09/15 02:05:31;;;;;;;2.13;1.97;;;;;;;;;;4973136;28;20213;-37
2023/09/15 02:08:01;;;;;;;2.70;1.80;;;;;;;;;;4973028;28;20311;-36
2023/09/15 02:10:28;;;;;;;1.97;1.63;;;;;;;;;;4967681;28;20240;-31
2023/09/15 02:12:56;;;;;;;3.30;2.30;;;;;;;;;;4968377;28;20634;-36
2023/09/15 02:15:25;;;;;;;1.90;1.80;;;;;;;;;;4974042;28;20205;-33
2023/09/15 02:18:03;;;;;;;3.63;1.80;;;;;;;;;;4968396;28;20213;-32
2023/09/15 02:20:36;;;;;;;1.93;1.83;;;;;;;;;;4969625;28;20224;-36
2023/09/15 02:23:07;;;;;;;1.90;1.80;;;;;;;;;;4962202;28;20225;-33
2023/09/15 02:25:40;;;;;;;1.93;1.60;;;;;;;;;;4959241;28;20220;-33
2023/09/15 02:28:08;;;;;;;3.07;2.50;;;;;;;;;;4969038;28;20621;-34
2023/09/15 02:30:39;;;;;;;2.93;2.30;;;;;;;;;;4973206;28;20236;-31
2023/09/15 02:33:07;;;;;;;4.93;2.50;;;;;;;;;;4966585;28;20219;-35
2023/09/15 02:35:37;;;;;;;3.03;2.10;;;;;;;;;;4973446;28;20212;-37
2023/09/15 02:38:13;;;;;;;2.37;2.00;;;;;;;;;;4969933;28;20204;-35
2023/09/15 02:40:50;;;;;;;2.13;1.93;;;;;;;;;;4976130;28;20239;-33
2023/09/15 02:43:23;;;;;;;2.80;2.33;;;;;;;;;;4977805;28;20196;-34
2023/09/15 02:45:51;;;;;;;2.53;1.70;;;;;;;;;;4977233;28;20770;-31
2023/09/15 02:48:19;;;;;;;2.43;1.90;;;;;;;;;;4976872;28;20200;-34
2023/09/15 02:50:48;;;;;;;1.97;1.77;;;;;;;;;;4973571;28;20259;-34
2023/09/15 02:53:20;;;;;;;2.20;2.00;;;;;;;;;;4970622;28;20208;-34
2023/09/15 02:55:59;;;;;;;2.53;1.80;;;;;;;;;;4968817;28;20607;-33
2023/09/15 02:58:27;;;;;;;2.73;2.03;;;;;;;;;;4973715;28;20213;-34
2023/09/15 03:00:55;;;;;;;2.43;1.90;;;;;;;;;;4977084;28;20228;-33
2023/09/15 03:03:29;;;;;;;2.40;2.20;;;;;;;;;;4970755;28;20209;-34
2023/09/15 03:06:07;;;;;;;2.43;2.23;;;;;;;;;;4975777;28;20263;-32
2023/09/15 03:08:38;;;;;;;2.90;2.10;;;;;;;;;;4969873;28;20236;-32
2023/09/15 03:11:06;;;;;;;2.83;2.40;;;;;;;;;;4969277;28;20204;-33
2023/09/15 03:13:37;;;;;;;2.50;2.30;;;;;;;;;;4976592;28;20204;-34
2023/09/15 03:16:12;;;;;;;3.97;2.57;;;;;;;;;;4976726;28;20201;-33
2023/09/15 03:18:49;;;;;;;2.83;2.57;;;;;;;;;;4976273;28;20232;-35
2023/09/15 03:21:19;;;;;;;2.67;2.47;;;;;;;;;;4966621;28;20209;-31
2023/09/15 03:23:49;;;;;;;2.77;2.30;;;;;;;;;;4976342;28;20328;-34
2023/09/15 03:26:19;;;;;;;2.30;2.10;;;;;;;;;;4968702;28;20221;-36
2023/09/15 03:28:47;;;;;;;2.53;2.27;;;;;;;;;;4973940;28;20201;-33
2023/09/15 03:31:22;;;;;;;5.33;2.50;;;;;;;;;;4976602;28;20232;-31
2023/09/15 03:33:52;;;;;;;2.90;2.17;;;;;;;;;;4967957;28;20205;-36
2023/09/15 03:36:26;;;;;;;2.90;2.10;;;;;;;;;;4972242;28;20228;-35
2023/09/15 03:39:02;;;;;;;3.37;2.53;;;;;;;;;;4974483;28;20500;-35
2023/09/15 03:41:32;;;;;;;2.00;1.90;;;;;;;;;;4972599;28;20216;-32
2023/09/15 03:44:02;;;;;;;4.47;2.77;;;;;;;;;;4967590;28;20269;-32
2023/09/15 03:46:36;;;;;;;4.00;2.30;;;;;;;;;;4975874;28;20308;-35
2023/09/15 03:49:05;;;;;;;2.43;2.20;;;;;;;;;;4969827;28;20565;-35
2023/09/15 03:51:36;;;;;;;2.17;1.97;;;;;;;;;;4971665;28;20213;-32
2023/09/15 03:54:05;;;;;;;2.30;2.10;;;;;;;;;;4965593;28;20212;-34
2023/09/15 03:56:33;;;;;;;2.27;2.07;;;;;;;;;;4971644;28;20204;-36
2023/09/15 03:59:01;;;;;;;2.57;2.00;;;;;;;;;;4974848;28;20232;-32
2023/09/15 04:03:56;;;;;;;2.20;1.80;;;;;;;;;;4972888;28;20236;-36
2023/09/15 04:06:23;;;;;;;2.67;1.90;;;;;;;;;;4988403;28;20210;-39
2023/09/15 04:08:53;;;;;;;2.97;2.00;;;;;;;;;;4984724;28;20222;-35
2023/09/15 04:11:20;;;;;;;3.90;1.90;;;;;;;;;;4966699;28;20208;-40
2023/09/15 04:13:48;;;;;;;2.23;2.03;;;;;;;;;;4966396;28;20302;-38
2023/09/15 04:16:15;;;;;;;3.90;2.07;;;;;;;;;;4956271;28;20213;-35
2023/09/15 04:18:42;;;;;;;2.30;2.10;;;;;;;;;;4956788;28;20213;-38
2023/09/15 04:21:10;;;;;;;2.83;2.27;;;;;;;;;;4958588;28;20201;-40
2023/09/15 04:23:37;;;;;;;2.23;2.07;;;;;;;;;;4967586;28;20223;-34
2023/09/15 04:26:06;;;;;;;2.40;2.20;;;;;;;;;;4957404;28;20224;-41
2023/09/15 04:28:33;;;;;;;2.73;2.10;;;;;;;;;;4966754;28;20205;-39
2023/09/15 04:31:00;;;;;;;3.97;1.93;;;;;;;;;;4956609;28;20680;-42
2023/09/15 04:33:27;;;;;;;1.93;1.73;;;;;;;;;;4962452;28;20214;-37
2023/09/15 04:35:55;;;;;;;2.20;2.00;;;;;;;;;;4969664;28;20213;-37
2023/09/15 04:38:22;;;;;;;2.77;2.40;;;;;;;;;;4970256;28;20229;-39
2023/09/15 04:40:49;;;;;;;2.80;2.10;;;;;;;;;;4954790;28;20236;-39
2023/09/15 04:43:17;;;;;;;2.77;2.10;;;;;;;;;;4962106;28;20219;-37
2023/09/15 04:45:45;;;;;;;2.23;2.10;;;;;;;;;;4966248;28;20252;-38
2023/09/15 04:48:12;;;;;;;5.67;2.20;;;;;;;;;;4958658;28;20710;-35
2023/09/15 04:50:39;;;;;;;2.87;1.93;;;;;;;;;;4972944;28;20233;-40
2023/09/15 04:53:07;;;;;;;3.83;2.20;;;;;;;;;;4957889;28;20407;-43
2023/09/15 04:55:34;;;;;;;1.83;1.53;;;;;;;;;;4967191;28;20209;-40
2023/09/15 04:58:01;;;;;;;2.80;2.30;;;;;;;;;;4961040;28;20244;-34
2023/09/15 05:00:34;;;;;;;3.07;2.30;;;;;;;;;;4954133;28;20236;-37
2023/09/15 05:03:10;;;;;;;1.97;1.83;;;;;;;;;;4964795;28;20243;-36
2023/09/15 05:05:37;;;;;;;2.40;2.20;;;;;;;;;;4969815;28;20659;-35
2023/09/15 05:08:07;;;;;;;2.47;2.13;;;;;;;;;;4963939;28;20214;-42
2023/09/15 05:10:34;;;;;;;2.43;2.23;;;;;;;;;;4962860;28;20328;-36
2023/09/15 05:13:05;;;;;;;2.67;2.47;;;;;;;;;;4973825;28;20647;-43
2023/09/15 05:15:37;;;;;;;2.83;2.20;;;;;;;;;;4971123;28;20282;-40
2023/09/15 05:18:05;;;;;;;2.17;1.53;;;;;;;;;;4965178;28;20201;-36
2023/09/15 05:20:33;;;;;;;2.07;1.90;;;;;;;;;;4967892;28;20314;-36
2023/09/15 05:23:15;;;;;;;5.10;2.00;;;;;;;;;;4967473;28;20213;-42
2023/09/15 05:25:42;;;;;;;3.70;2.40;;;;;;;;;;4968713;28;20227;-34
2023/09/15 05:28:09;;;;;;;4.07;2.03;;;;;;;;;;4961226;28;20210;-38
2023/09/15 05:30:41;;;;;;;2.43;2.30;;;;;;;;;;4964120;28;20245;-41
2023/09/15 05:33:09;;;;;;;2.90;2.33;;;;;;;;;;4972608;28;20205;-37
2023/09/15 05:35:37;;;;;;;2.37;2.17;;;;;;;;;;4966577;28;20292;-35
2023/09/15 05:38:04;;;;;;;4.23;2.20;;;;;;;;;;4967693;28;20208;-40
2023/09/15 05:40:31;;;;;;;7.93;5.50;;;;;;;;;;4961389;28;20229;-34
2023/09/15 05:42:58;;;;;;;3.70;2.07;;;;;;;;;;4968136;28;20209;-34
2023/09/15 05:45:26;;;;;;;3.90;2.47;;;;;;;;;;4968293;28;20236;-39
2023/09/15 05:47:53;;;;;;;2.47;2.27;;;;;;;;;;4957643;28;20213;-37
2023/09/15 05:50:21;;;;;;;3.80;2.20;;;;;;;;;;4963110;28;20235;-33
2023/09/15 05:52:48;;;;;;;2.60;2.20;;;;;;;;;;4965381;28;20851;-37
2023/09/15 05:55:16;;;;;;;3.40;2.23;;;;;;;;;;4956255;28;20219;-35
2023/09/15 05:57:43;;;;;;;3.20;2.40;;;;;;;;;;4962257;28;20205;-41
2023/09/15 06:00:11;;;;;;;3.57;2.60;;;;;;;;;;4972453;28;20224;-36
2023/09/15 06:02:38;;;;;;;4.87;2.30;;;;;;;;;;4969827;28;20221;-37
2023/09/15 06:05:08;;;;;;;2.73;2.50;;;;;;;;;;4961530;28;20651;-39
2023/09/15 06:07:37;;;;;;;2.33;2.13;;;;;;;;;;4967866;28;20235;-41
2023/09/15 06:10:04;;;;;;;2.77;2.20;;;;;;;;;;4968736;28;20237;-38
2023/09/15 06:12:31;;;;;;;2.40;2.20;;;;;;;;;;4962375;28;20220;-41
2023/09/15 06:14:59;;;;;;;2.63;2.43;;;;;;;;;;4969740;28;20210;-38
2023/09/15 06:17:27;;;;;;;3.67;2.30;;;;;;;;;;4963974;28;20214;-41
2023/09/15 06:19:54;;;;;;;3.53;2.73;;;;;;;;;;4967252;28;20229;-34
2023/09/15 06:22:21;;;;;;;2.60;2.17;;;;;;;;;;4972677;28;20220;-39
2023/09/15 06:24:51;;;;;;;4.90;3.00;;;;;;;;;;4964101;28;20217;-41
2023/09/15 06:27:18;;;;;;;3.50;2.50;;;;;;;;;;4952545;28;20266;-39
2023/09/15 06:29:45;;;;;;;3.97;2.70;;;;;;;;;;4960458;28;20571;-34
2023/09/15 06:32:13;;;;;;;3.80;2.90;;;;;;;;;;4971616;28;20217;-36
2023/09/15 06:34:40;;;;;;;3.17;2.87;;;;;;;;;;4959930;28;20219;-40
2023/09/15 06:37:08;;;;;;;2.90;2.70;;;;;;;;;;4965960;28;20300;-32
2023/09/15 06:39:35;;;;;;;3.47;2.83;;;;;;;;;;4955571;28;20262;-32
2023/09/15 06:42:05;;;;;;;3.50;3.00;;;;;;;;;;4962876;28;20236;-41
2023/09/15 06:44:32;;;;;;;3.20;2.83;;;;;;;;;;4957578;28;20208;-36
2023/09/15 06:46:59;;;;;;;3.47;2.83;;;;;;;;;;4969990;28;20208;-38
2023/09/15 06:49:26;;;;;;;4.77;3.40;;;;;;;;;;4964401;28;20225;-37
2023/09/15 06:51:54;;;;;;;2.83;2.50;;;;;;;;;;4967268;28;20287;-39
2023/09/15 06:54:22;;;;;;;2.73;2.37;;;;;;;;;;4950254;28;20225;-36
2023/09/15 06:56:49;;;;;;;5.40;3.57;;;;;;;;;;4965497;28;20241;-39
2023/09/15 06:59:18;;;;;;;8.07;3.50;;;;;;;;;;4971811;28;20242;-37
2023/09/15 07:01:45;;;;;;;3.77;3.37;;;;;;;;;;4966304;28;20215;-38
2023/09/15 07:04:13;;;;;;;4.53;3.07;;;;;;;;;;4960168;28;20197;-37
2023/09/15 07:06:40;;;;;;;4.20;3.03;;;;;;;;;;4961667;28;20767;-38
2023/09/15 07:09:07;;;;;;;2.80;2.60;;;;;;;;;;4959091;28;20233;-39
2023/09/15 07:11:35;;;;;;;4.33;3.40;;;;;;;;;;4958865;28;20311;-34
2023/09/15 07:14:02;;;;;;;4.37;3.63;;;;;;;;;;4964109;28;20248;-36
2023/09/15 07:16:30;;;;;;;3.00;2.80;;;;;;;;;;4967280;28;20298;-37
2023/09/15 07:18:57;;;;;;;5.17;3.23;;;;;;;;;;4960710;28;20393;-36
2023/09/15 07:21:24;;;;;;;7.37;3.70;;;;;;;;;;4960516;28;20212;-39
2023/09/15 07:23:52;;;;;;;3.97;3.33;;;;;;;;;;4967675;28;20582;-40
2023/09/15 07:26:19;;;;;;;4.87;3.90;;;;;;;;;;4957473;28;20209;-35
2023/09/15 07:28:46;;;;;;;5.57;4.17;;;;;;;;;;4967515;28;20211;-35
2023/09/15 07:31:15;;;;;;;5.20;3.50;;;;;;;;;;4974195;28;20226;-32
2023/09/15 07:33:44;;;;;;;5.40;4.07;;;;;;;;;;4961654;28;20234;-40
2023/09/15 07:36:11;;;;;;;4.07;3.37;;;;;;;;;;4965931;28;20215;-34
2023/09/15 07:38:38;;;;;;;3.93;3.57;;;;;;;;;;4975552;28;20217;-37
2023/09/15 07:41:06;;;;;;;4.60;3.50;;;;;;;;;;4969727;28;20208;-36
2023/09/15 07:43:33;;;;;;;6.37;3.77;;;;;;;;;;4968997;28;20216;-35
2023/09/15 07:46:07;;;;;;;5.80;3.47;;;;;;;;;;4965344;28;20201;-36
2023/09/15 07:48:34;;;;;;;4.30;3.60;;;;;;;;;;4964846;28;20233;-34
2023/09/15 07:51:03;;;;;;;8.37;4.33;;;;;;;;;;4964007;28;20233;-41
2023/09/15 07:53:31;;;;;;;4.10;3.70;;;;;;;;;;4960341;28;20209;-39
2023/09/15 07:55:58;;;;;;;3.63;3.33;;;;;;;;;;4964404;28;20208;-39
2023/09/15 07:58:25;;;;;;;5.40;4.53;;;;;;;;;;4970831;28;20311;-41
2023/09/15 08:00:53;;;;;;;5.10;4.30;;;;;;;;;;4962582;28;20221;-39
2023/09/15 08:03:20;;;;;;;4.40;3.70;;;;;;;;;;4963837;28;20225;-38
2023/09/15 08:05:47;;;;;;;4.53;3.33;;;;;;;;;;4960654;28;20228;-39
2023/09/15 08:08:15;;;;;;;10.37;3.67;;;;;;;;;;4971799;28;20211;-41
2023/09/15 08:10:42;;;;;;;6.43;4.13;;;;;;;;;;4961828;28;20235;-36
2023/09/15 08:13:09;;;;;;;6.37;4.80;;;;;;;;;;4972317;28;20208;-33
2023/09/15 08:15:36;;;;;;;5.37;3.80;;;;;;;;;;4967241;28;20235;-34
2023/09/15 08:18:03;;;;;;;6.27;4.10;;;;;;;;;;4968942;28;20218;-40
2023/09/15 08:20:30;;;;;;;5.47;4.57;;;;;;;;;;4969770;28;20236;-40
2023/09/15 08:22:58;;;;;;;8.00;4.70;;;;;;;;;;4963906;28;20652;-39
2023/09/15 08:25:27;;;;;;;5.70;4.77;;;;;;;;;;4958708;28;20209;-35
2023/09/15 08:27:54;;;;;;;5.27;4.53;;;;;;;;;;4956426;28;20215;-37
2023/09/15 08:30:22;;;;;;;5.17;4.33;;;;;;;;;;4967452;28;20230;-36
2023/09/15 08:32:49;;;;;;;4.27;3.87;;;;;;;;;;4976883;28;20209;-39
2023/09/15 08:35:17;;;;;;;5.10;4.60;;;;;;;;;;4966431;28;20216;-36
2023/09/15 08:37:44;;;;;;;4.50;3.73;;;;;;;;;;4968487;28;20228;-35
2023/09/15 08:40:11;;;;;;;5.13;4.20;;;;;;;;;;4968064;28;20313;-36
2023/09/15 08:42:40;;;;;;;5.60;4.93;;;;;;;;;;4965342;28;20197;-43
2023/09/15 08:45:08;;;;;;;4.87;4.10;;;;;;;;;;4964791;28;20213;-38
2023/09/15 08:47:38;;;;;;;5.10;4.60;;;;;;;;;;4964728;28;20216;-35
2023/09/15 08:50:05;;;;;;;5.23;4.53;;;;;;;;;;4962885;28;20252;-42
2023/09/15 08:52:33;;;;;;;6.63;5.20;;;;;;;;;;4958429;28;20227;-40
2023/09/15 08:55:01;;;;;;;5.13;4.57;;;;;;;;;;4964789;28;20213;-36
2023/09/15 08:57:30;;;;;;;7.83;5.47;;;;;;;;;;4965255;28;20260;-35
2023/09/15 08:59:59;;;;;;;7.07;5.50;;;;;;;;;;4958956;28;20230;-41
2023/09/15 09:02:28;;;;;;;7.63;5.47;;;;;;;;;;4955663;28;20216;-38
2023/09/15 09:04:55;;;;;;;11.00;6.07;;;;;;;;;;4973846;28;20207;-39
2023/09/15 09:07:23;;;;;;;7.00;5.53;;;;;;;;;;4958632;28;20294;-40
2023/09/15 09:09:50;;;;;;;7.73;5.80;;;;;;;;;;4968169;28;20230;-38
2023/09/15 09:12:17;;;;;;;7.70;5.30;;;;;;;;;;4970315;28;20281;-35
2023/09/15 09:14:45;;;;;;;9.53;6.03;;;;;;;;;;4968617;28;20263;-39
2023/09/15 09:17:14;;;;;;;7.43;6.00;;;;;;;;;;4955670;28;20211;-39
2023/09/15 09:19:43;;;;;;;6.03;5.40;;;;;;;;;;4959981;28;20260;-39
2023/09/15 09:22:10;;;;;;;6.13;4.70;;;;;;;;;;4962617;28;20215;-40
2023/09/15 09:24:37;;;;;;;7.77;4.70;;;;;;;;;;4960743;28;20279;-35
2023/09/15 09:27:09;;;;;;;6.50;4.93;;;;;;;;;;4963473;28;20213;-41
2023/09/15 09:29:37;;;;;;;7.70;5.10;;;;;;;;;;4954695;28;20225;-39
2023/09/15 09:32:04;;;;;;;5.63;4.93;;;;;;;;;;4962851;28;20292;-39
2023/09/15 09:34:33;;;;;;;5.83;5.03;;;;;;;;;;4968942;28;20219;-38
2023/09/15 09:37:00;;;;;;;6.33;4.67;;;;;;;;;;4966041;28;20212;-37
2023/09/15 09:39:28;;;;;;;9.77;6.40;;;;;;;;;;4963111;28;20236;-41
2023/09/15 09:41:56;;;;;;;6.60;4.70;;;;;;;;;;4958938;28;20211;-39
2023/09/15 09:44:23;;;;;;;6.70;4.40;;;;;;;;;;4955487;28;20659;-36
2023/09/15 09:46:53;;;;;;;6.30;5.07;;;;;;;;;;4954898;28;20220;-41
2023/09/15 09:49:21;;;;;;;5.30;3.60;;;;;;;;;;4959735;28;20236;-39
2023/09/15 09:51:52;;;;;;;7.03;4.67;;;;;;;;;;4967655;28;20236;-33
2023/09/15 09:54:19;;;;;;;6.93;4.23;;;;;;;;;;4950866;28;20216;-38
2023/09/15 09:56:51;;;;;;;5.43;4.93;;;;;;;;;;4963401;28;20218;-38
2023/09/15 09:59:18;;;;;;;5.20;4.20;;;;;;;;;;4957794;28;20228;-37
2023/09/15 10:01:45;;;;;;;5.93;4.83;;;;;;;;;;4966472;28;22119;-38
2023/09/15 10:04:12;;;;;;;4.30;3.53;;;;;;;;;;4962268;28;20197;-40
2023/09/15 10:06:40;;;;;;;7.43;4.90;;;;;;;;;;4973682;28;20295;-40
2023/09/15 10:14:13;;;;;;;4.43;4.00;;;;;;;;;;4988607;28;20259;-44
2023/09/15 10:16:41;;;;;;;5.20;3.80;;;;;;;;;;4990577;28;20208;-41
2023/09/15 10:19:09;;;;;;;4.70;4.30;;;;;;;;;;4989858;28;20227;-44
2023/09/15 10:21:36;;;;;;;4.80;3.67;;;;;;;;;;4982556;28;20302;-43
2023/09/15 10:24:07;;;;;;;5.37;4.00;;;;;;;;;;4987251;28;20250;-43
2023/09/15 10:26:34;;;;;;;4.27;3.83;;;;;;;;;;4987985;28;20218;-45
2023/09/15 10:29:02;;;;;;;3.90;3.60;;;;;;;;;;4979313;28;20241;-44
2023/09/15 10:31:32;;;;;;;3.73;3.43;;;;;;;;;;4982795;28;20234;-46
2023/09/15 10:34:02;;;;;;;6.23;4.37;;;;;;;;;;4986937;28;20706;-45
2023/09/15 10:36:30;;;;;;;5.30;4.13;;;;;;;;;;4982772;28;20211;-43
2023/09/15 10:38:58;;;;;;;4.30;3.90;;;;;;;;;;4982842;28;20199;-43
2023/09/15 10:41:29;;;;;;;7.43;3.90;;;;;;;;;;4977197;28;20199;-44
2023/09/15 10:43:56;;;;;;;4.50;4.10;;;;;;;;;;4978262;28;20212;-45
2023/09/15 10:46:39;;;;;;;5.20;3.70;;;;;;;;;;4981095;28;20286;-42
2023/09/15 10:49:16;;;;;;;3.53;3.23;;;;;;;;;;4986461;28;20238;-43
2023/09/15 10:51:56;;;;;;;4.63;4.17;;;;;;;;;;4987799;28;20222;-42
2023/09/15 10:54:25;;;;;;;3.67;3.37;;;;;;;;;;4975733;28;20211;-43
2023/09/15 10:56:53;;;;;;;3.77;3.47;;;;;;;;;;4988158;28;20207;-45
2023/09/15 10:59:20;;;;;;;4.60;4.10;;;;;;;;;;4978995;28;20252;-43
2023/09/15 11:01:48;;;;;;;5.40;3.57;;;;;;;;;;4990044;28;20199;-41
2023/09/15 11:04:20;;;;;;;3.80;3.50;;;;;;;;;;4985241;28;20302;-44
2023/09/15 11:06:49;;;;;;;4.43;3.17;;;;;;;;;;4976758;28;20215;-45
2023/09/15 11:09:16;;;;;;;3.37;3.10;;;;;;;;;;4982508;28;20277;-42
2023/09/15 11:11:45;;;;;;;4.60;3.23;;;;;;;;;;4988589;28;20226;-43
2023/09/15 11:14:13;;;;;;;3.47;3.17;;;;;;;;;;4968248;28;20211;-43
2023/09/15 11:16:48;;;;;;;3.47;3.17;;;;;;;;;;4984671;28;20290;-43
2023/09/15 11:19:20;;;;;;;3.73;3.17;;;;;;;;;;4974886;28;20239;-44
2023/09/15 11:21:48;;;;;;;4.77;3.40;;;;;;;;;;4967196;28;20262;-43
2023/09/15 11:24:19;;;;;;;3.93;3.53;;;;;;;;;;4977410;28;20216;-44
2023/09/15 11:26:50;;;;;;;4.63;4.13;;;;;;;;;;4974391;28;20213;-45
2023/09/15 11:29:17;;;;;;;7.67;3.90;;;;;;;;;;4974474;28;20235;-44
2023/09/15 11:31:46;;;;;;;5.20;4.00;;;;;;;;;;4973347;28;20255;-42
2023/09/15 11:34:15;;;;;;;4.00;3.70;;;;;;;;;;4965667;28;20209;-40
2023/09/15 11:36:45;;;;;;;5.43;4.13;;;;;;;;;;4975179;28;20212;-45
2023/09/15 11:39:12;;;;;;;4.80;3.67;;;;;;;;;;4966814;28;20240;-44
2023/09/15 11:41:50;;;;;;;6.23;4.30;;;;;;;;;;4974974;28;20268;-45
2023/09/15 11:44:19;;;;;;;4.40;4.00;;;;;;;;;;4991572;28;20693;-46
2023/09/15 11:46:46;;;;;;;4.03;3.70;;;;;;;;;;4961668;28;20610;-45
2023/09/15 11:49:15;;;;;;;4.33;3.73;;;;;;;;;;4974772;28;20581;-45
2023/09/15 11:51:42;;;;;;;3.90;3.60;;;;;;;;;;4976327;28;20280;-42
2023/09/15 11:54:16;;;;;;;4.40;4.00;;;;;;;;;;4960085;28;20227;-38
2023/09/15 11:56:45;;;;;;;5.13;4.60;;;;;;;;;;4983100;28;20209;-43
2023/09/15 11:59:15;;;;;;;5.87;4.17;;;;;;;;;;4968549;28;20288;-41
2023/09/15 12:01:43;;;;;;;5.93;4.13;;;;;;;;;;4984729;28;20200;-42
2023/09/15 12:09:17;;;;;;;5.40;3.90;;;;;;;;;;4989893;28;20314;-45
2023/09/15 12:11:48;;;;;;;7.20;4.57;;;;;;;;;;4992476;28;20259;-43
2023/09/15 12:14:16;;;;;;;4.57;4.18;;;;;;;;;;4996014;28;20287;-42
2023/09/15 12:16:48;;;;;;;4.65;3.75;;;;;;;;;;4996015;28;20270;-41
2023/09/15 12:19:17;;;;;;;6.80;3.90;;;;;;;;;;4992431;28;20259;-44
2023/09/15 12:21:54;;;;;;;4.70;4.15;;;;;;;;;;4987930;28;20212;-42
2023/09/15 12:24:25;;;;;;;4.63;4.20;;;;;;;;;;4992653;28;20249;-44
2023/09/15 12:26:54;;;;;;;4.30;3.90;;;;;;;;;;4995553;28;20278;-42
2023/09/15 12:29:23;;;;;;;4.28;3.88;;;;;;;;;;4995562;28;20278;-41
2023/09/15 12:31:51;;;;;;;6.50;4.25;;;;;;;;;;4995113;28;20303;-42
2023/09/15 12:34:20;;;;;;;4.70;4.30;;;;;;;;;;4988532;28;20638;-42
2023/09/15 12:36:49;;;;;;;4.90;4.50;;;;;;;;;;4988290;28;20299;-38
2023/09/15 12:39:16;;;;;;;4.63;4.00;;;;;;;;;;4988596;28;20231;-46
2023/09/15 12:41:45;;;;;;;5.80;4.53;;;;;;;;;;4994108;28;20231;-44
2023/09/15 12:44:14;;;;;;;4.63;4.22;;;;;;;;;;4994569;28;20228;-44
2023/09/15 12:46:41;;;;;;;4.35;3.70;;;;;;;;;;4994301;28;20222;-39
2023/09/15 12:49:09;;;;;;;4.20;3.80;;;;;;;;;;4985951;28;20231;-41
2023/09/15 12:51:38;;;;;;;4.97;4.47;;;;;;;;;;4997961;28;20249;-43
2023/09/15 12:54:06;;;;;;;4.80;4.13;;;;;;;;;;4993436;28;20227;-42
2023/09/15 12:56:33;;;;;;;5.50;4.75;;;;;;;;;;4989086;28;20215;-40
2023/09/15 12:59:03;;;;;;;5.00;4.50;;;;;;;;;;4994169;28;20227;-42
2023/09/15 13:01:31;;;;;;;5.63;4.50;;;;;;;;;;4994410;28;20227;-45
2023/09/15 13:04:02;;;;;;;6.50;4.63;;;;;;;;;;4987845;28;20247;-40
2023/09/15 13:06:29;;;;;;;5.80;3.67;;;;;;;;;;4991165;28;20207;-44
2023/09/15 13:08:57;;;;;;;5.32;4.55;;;;;;;;;;4993440;28;20283;-42
2023/09/15 13:11:26;;;;;;;6.18;4.32;;;;;;;;;;4987829;28;20204;-43
2023/09/15 13:13:53;;;;;;;5.47;4.90;;;;;;;;;;4994003;28;20346;-46
2023/09/15 13:16:24;;;;;;;5.15;4.57;;;;;;;;;;4992704;28;20236;-41
2023/09/15 13:18:52;;;;;;;5.45;4.10;;;;;;;;;;4987210;28;20236;-43
2023/09/15 13:21:20;;;;;;;5.40;3.88;;;;;;;;;;4986063;28;20212;-44
2023/09/15 13:23:47;;;;;;;5.53;4.15;;;;;;;;;;4981879;28;20215;-44
2023/09/15 13:26:15;;;;;;;5.30;4.80;;;;;;;;;;4990888;28;20203;-46
2023/09/15 13:28:42;;;;;;;5.32;4.70;;;;;;;;;;4992601;28;20236;-45
2023/09/15 13:31:10;;;;;;;4.72;4.32;;;;;;;;;;4992133;28;20214;-42
2023/09/15 13:33:39;;;;;;;6.68;4.30;;;;;;;;;;4993004;28;20258;-46
2023/09/15 13:36:06;;;;;;;6.20;4.03;;;;;;;;;;4987274;28;20207;-44
2023/09/15 13:38:34;;;;;;;6.20;4.40;;;;;;;;;;4991297;28;20207;-42
2023/09/15 13:41:01;;;;;;;6.55;4.35;;;;;;;;;;4988991;28;20286;-43
2023/09/15 13:43:28;;;;;;;4.13;3.70;;;;;;;;;;4985620;28;20230;-41
2023/09/15 13:45:56;;;;;;;5.57;4.50;;;;;;;;;;4988273;28;20276;-43
2023/09/15 13:48:24;;;;;;;4.82;4.20;;;;;;;;;;4995742;28;20280;-42
2023/09/15 13:50:53;;;;;;;4.70;4.30;;;;;;;;;;4985626;28;20227;-39
2023/09/15 13:53:21;;;;;;;5.45;4.18;;;;;;;;;;4992542;28;20219;-43
2023/09/15 13:55:48;;;;;;;5.03;4.10;;;;;;;;;;4986896;28;20215;-38
2023/09/15 13:58:16;;;;;;;5.50;5.00;;;;;;;;;;4991195;28;20210;-38
2023/09/15 14:00:55;;;;;;;5.10;4.57;;;;;;;;;;4992449;28;20230;-45
2023/09/15 14:03:23;;;;;;;5.22;4.53;;;;;;;;;;4987455;28;20202;-44
2023/09/15 14:05:51;;;;;;;5.07;4.30;;;;;;;;;;4992085;28;20204;-41
2023/09/15 14:08:19;;;;;;;4.57;4.13;;;;;;;;;;4992771;28;20218;-41
2023/09/15 14:10:47;;;;;;;13.05;4.75;;;;;;;;;;4984739;28;20317;-43
2023/09/15 14:13:15;;;;;;;5.38;4.35;;;;;;;;;;4994249;28;20259;-42
2023/09/15 14:15:43;;;;;;;4.88;4.32;;;;;;;;;;4993191;28;20263;-40
2023/09/15 14:18:12;;;;;;;5.30;4.80;;;;;;;;;;4992041;28;20671;-44
2023/09/15 14:20:42;;;;;;;4.57;4.13;;;;;;;;;;4989380;28;20230;-43
2023/09/15 14:23:09;;;;;;;5.53;4.95;;;;;;;;;;4988922;28;20208;-43
2023/09/15 14:25:38;;;;;;;7.00;5.45;;;;;;;;;;4984273;28;20214;-40
2023/09/15 14:28:07;;;;;;;4.95;4.45;;;;;;;;;;4993821;28;20291;-40
2023/09/15 14:30:34;;;;;;;5.18;4.68;;;;;;;;;;4996406;28;20228;-42
2023/09/15 14:33:02;;;;;;;4.85;4.45;;;;;;;;;;4995770;28;20315;-41
2023/09/15 14:35:29;;;;;;;9.77;5.05;;;;;;;;;;4992252;28;20239;-41
2023/09/15 14:37:56;;;;;;;5.50;4.50;;;;;;;;;;4990884;28;20208;-41
2023/09/15 14:40:23;;;;;;;4.97;4.47;;;;;;;;;;4988509;28;20251;-42
2023/09/15 14:42:51;;;;;;;4.45;4.05;;;;;;;;;;4993773;28;20247;-46
2023/09/15 14:45:21;;;;;;;8.35;4.63;;;;;;;;;;4995318;28;20204;-41
2023/09/15 14:47:49;;;;;;;4.57;3.97;;;;;;;;;;4994146;28;20219;-42
2023/09/15 14:50:16;;;;;;;4.55;4.15;;;;;;;;;;4987517;28;20292;-42
2023/09/15 14:52:44;;;;;;;4.75;4.25;;;;;;;;;;4994136;28;20266;-41
2023/09/15 14:55:11;;;;;;;5.30;4.32;;;;;;;;;;4990468;28;20239;-44
2023/09/15 14:57:38;;;;;;;5.45;4.38;;;;;;;;;;4992480;28;20635;-41
2023/09/15 15:00:08;;;;;;;5.10;4.57;;;;;;;;;;5000139;28;20255;-40
2023/09/15 15:02:36;;;;;;;4.60;4.20;;;;;;;;;;4995297;28;20695;-46
2023/09/15 15:05:05;;;;;;;5.10;4.45;;;;;;;;;;4994905;28;20213;-47